KMDW/MDW METAR and TAF weather

Enter ICAO airport designator
Station Type Date Time Source
KMDW METAR 2021/09/16 21:53 UTC NOAA

KMDW 162153Z 14007KT 10SM CLR 28/09 A3003 RMK AO2 SLP161 T02780089


Station Type Date Time Source
KMDW Decoded METAR 2021/09/16 21:53 UTC NOAA

CHICAGO MIDWAY AIRPORT, IL, United States (KMDW) 41-47N 087-45W 188M
Sep 16, 2021 - 05:53 PM EDT / 2021.09.16 2153 UTC
Wind: from the SE (140 degrees) at 8 MPH (7 KT):0
Visibility: 10 mile(s):0
Sky conditions: clear
Temperature: 82.0 F (27.8 C)
Dew Point: 48.0 F (8.9 C)
Relative Humidity: 30%
Pressure (altimeter): 30.03 in. Hg (1016 hPa)
ob: KMDW 162153Z 14007KT 10SM CLR 28/09 A3003 RMK AO2 SLP161 T02780089
cycle: 22

Station Type Date Time Source
KMDW TAF 2021/09/16 21:03 UTC NOAA

TAF
AMD KMDW 162101Z 1621/1724 17010KT P6SM SKC
FM170000 15009KT P6SM SKC
FM170900 21008KT P6SM FEW040
FM171500 24012KT P6SM SCT040

Example: see airport list